Airfield :







YOU CAN JOIN US ON...

 
LOGIN :

Register | Disclaimer

   EN    FR    IT 

 









Legend :    VFR   Marginal VFR   IFR   Intensive IFR   Very Intensive IFR
Visi :
Ceiling :
>= 8 km
>= 3000ft
5 to 8 km
1000 to 3000 ft
1500m to 5 km
500 to 1000 ft
800 to 1500m
200 to 500 ft
< 800m
< 200 ft
Symbols :   Thunderstorms  Fog  Heavy snow  Heavy precipitations  Wind > 20 kt







- Airport Elevation : 522 ft
- IATA code : YBG


CYBG - CFB Bagotville

CURRENT METAR :
  • 171800Z 29012G19KT 25SM BKN040 BKN250 20/11 A2989 RMK SC5CI2 SLP124

EXPIRED METARs :
  • 171700Z 30014G19KT 25SM BKN038 BKN250 20/11 A2988 RMK SC6CI2 SLP119
  • 171600Z 30012G17KT 25SM BKN031 BKN250 19/11 A2988 RMK SC6CI1 SLP119

TAF TAF CYBG
Valid from the 17 at 18:00 until the 18 at 18:00 UTC


171730Z 1718/1818 29015G25KT P6SM BKN040
TEMPO 1718/1724 SCT040
FM180000 31010KT P6SM FEW040
BECMG 1800/1802 VRB03KT RMK NXT FCST BY 172100Z
CZUL FIR / North America



MET'MAP, your aeronautical weather chart ! - Copyright ORBIFLY December 2007 - Disclaimer

ORBIFLY MET'MAP TEAM :

Programming & Development : Alexandra Zaïnal
Concept & Development : Baudouin d'Aumeries
Co-Development & Prog : Marc-Olivier Méhu
Technical & hardware support : Manuel Goepfert

Contact : metmap@orbifly.com




SOURCES & CREDITS :

   NOAA